sensor_id;sensor_type;location;lat;lon;timestamp;P1;durP1;ratioP1;P2;durP2;ratioP2
31126;SDS011;17775;57.948;12.514;2023-07-13T00:10:00;14.32;;;3.97;;
31126;SDS011;17775;57.948;12.514;2023-07-13T00:15:57;18.65;;;4.30;;
31126;SDS011;17775;57.948;12.514;2023-07-13T00:21:48;11.70;;;4.43;;
31126;SDS011;17775;57.948;12.514;2023-07-13T00:27:38;15.48;;;4.25;;
31126;SDS011;17775;57.948;12.514;2023-07-13T00:30:05;12.18;;;4.20;;
31126;SDS011;17775;57.948;12.514;2023-07-13T00:32:32;9.20;;;3.60;;
31126;SDS011;17775;57.948;12.514;2023-07-13T00:35:01;15.25;;;4.10;;
31126;SDS011;17775;57.948;12.514;2023-07-13T00:47:21;21.02;;;4.57;;
31126;SDS011;17775;57.948;12.514;2023-07-13T00:49:48;14.88;;;3.50;;
31126;SDS011;17775;57.948;12.514;2023-07-13T00:52:14;15.27;;;4.63;;
31126;SDS011;17775;57.948;12.514;2023-07-13T00:54:45;18.95;;;4.03;;
31126;SDS011;17775;57.948;12.514;2023-07-13T00:57:14;16.67;;;3.95;;
31126;SDS011;17775;57.948;12.514;2023-07-13T00:59:42;16.10;;;4.90;;
31126;SDS011;17775;57.948;12.514;2023-07-13T01:02:08;18.63;;;5.68;;
31126;SDS011;17775;57.948;12.514;2023-07-13T01:15:05;16.65;;;4.10;;
31126;SDS011;17775;57.948;12.514;2023-07-13T01:17:33;15.73;;;4.85;;
31126;SDS011;17775;57.948;12.514;2023-07-13T01:20:00;12.45;;;4.70;;
31126;SDS011;17775;57.948;12.514;2023-07-13T01:48:45;14.40;;;4.25;;
31126;SDS011;17775;57.948;12.514;2023-07-13T03:27:32;11.60;;;4.32;;
31126;SDS011;17775;57.948;12.514;2023-07-13T03:39:41;9.75;;;4.13;;
31126;SDS011;17775;57.948;12.514;2023-07-13T03:48:04;16.02;;;4.70;;
31126;SDS011;17775;57.948;12.514;2023-07-13T03:50:31;9.88;;;3.88;;
31126;SDS011;17775;57.948;12.514;2023-07-13T04:02:41;9.10;;;3.75;;
31126;SDS011;17775;57.948;12.514;2023-07-13T04:08:52;11.68;;;3.50;;
31126;SDS011;17775;57.948;12.514;2023-07-13T04:14:58;15.95;;;4.30;;
31126;SDS011;17775;57.948;12.514;2023-07-13T04:48:24;13.50;;;3.63;;
31126;SDS011;17775;57.948;12.514;2023-07-13T04:51:06;9.63;;;3.85;;
31126;SDS011;17775;57.948;12.514;2023-07-13T04:53:33;10.88;;;3.90;;
31126;SDS011;17775;57.948;12.514;2023-07-13T04:56:01;11.98;;;3.70;;
31126;SDS011;17775;57.948;12.514;2023-07-13T04:58:27;9.45;;;3.80;;
31126;SDS011;17775;57.948;12.514;2023-07-13T05:16:49;8.52;;;3.60;;
31126;SDS011;17775;57.948;12.514;2023-07-13T05:19:15;12.68;;;4.15;;
31126;SDS011;17775;57.948;12.514;2023-07-13T05:21:42;14.18;;;3.95;;
31126;SDS011;17775;57.948;12.514;2023-07-13T05:59:49;9.95;;;3.33;;
31126;SDS011;17775;57.948;12.514;2023-07-13T06:02:15;13.10;;;3.50;;
31126;SDS011;17775;57.948;12.514;2023-07-13T06:04:42;10.15;;;2.95;;
31126;SDS011;17775;57.948;12.514;2023-07-13T06:17:52;6.68;;;2.50;;
31126;SDS011;17775;57.948;12.514;2023-07-13T06:20:18;7.80;;;2.75;;
31126;SDS011;17775;57.948;12.514;2023-07-13T06:22:45;9.25;;;2.78;;
31126;SDS011;17775;57.948;12.514;2023-07-13T06:28:13;9.27;;;2.50;;
31126;SDS011;17775;57.948;12.514;2023-07-13T06:30:40;6.93;;;1.98;;
31126;SDS011;17775;57.948;12.514;2023-07-13T06:33:06;8.18;;;2.30;;
31126;SDS011;17775;57.948;12.514;2023-07-13T06:35:33;8.27;;;2.35;;
31126;SDS011;17775;57.948;12.514;2023-07-13T06:38:00;10.82;;;3.05;;
31126;SDS011;17775;57.948;12.514;2023-07-13T06:40:26;9.93;;;2.40;;
31126;SDS011;17775;57.948;12.514;2023-07-13T06:42:55;8.40;;;2.42;;
31126;SDS011;17775;57.948;12.514;2023-07-13T06:45:21;6.50;;;2.10;;
31126;SDS011;17775;57.948;12.514;2023-07-13T06:47:48;7.20;;;2.03;;
31126;SDS011;17775;57.948;12.514;2023-07-13T06:50:17;13.20;;;3.00;;
31126;SDS011;17775;57.948;12.514;2023-07-13T06:52:44;9.43;;;2.30;;
31126;SDS011;17775;57.948;12.514;2023-07-13T06:55:10;12.10;;;3.13;;
31126;SDS011;17775;57.948;12.514;2023-07-13T07:08:38;6.95;;;2.35;;
31126;SDS011;17775;57.948;12.514;2023-07-13T07:11:05;7.95;;;3.17;;
31126;SDS011;17775;57.948;12.514;2023-07-13T07:13:31;12.50;;;3.72;;
31126;SDS011;17775;57.948;12.514;2023-07-13T07:15:58;8.88;;;3.35;;
31126;SDS011;17775;57.948;12.514;2023-07-13T07:18:26;15.15;;;4.25;;
31126;SDS011;17775;57.948;12.514;2023-07-13T07:20:52;14.75;;;4.45;;
31126;SDS011;17775;57.948;12.514;2023-07-13T07:23:19;8.63;;;4.05;;
31126;SDS011;17775;57.948;12.514;2023-07-13T07:25:45;10.75;;;4.18;;
31126;SDS011;17775;57.948;12.514;2023-07-13T07:28:14;10.48;;;4.93;;
31126;SDS011;17775;57.948;12.514;2023-07-13T07:31:01;16.85;;;5.60;;
31126;SDS011;17775;57.948;12.514;2023-07-13T07:33:32;17.10;;;5.40;;
31126;SDS011;17775;57.948;12.514;2023-07-13T07:35:58;13.00;;;4.65;;
31126;SDS011;17775;57.948;12.514;2023-07-13T07:38:28;13.93;;;5.35;;
31126;SDS011;17775;57.948;12.514;2023-07-13T07:40:55;13.48;;;4.35;;
31126;SDS011;17775;57.948;12.514;2023-07-13T07:43:24;12.85;;;3.78;;
31126;SDS011;17775;57.948;12.514;2023-07-13T07:45:50;7.22;;;3.08;;
31126;SDS011;17775;57.948;12.514;2023-07-13T07:48:17;8.50;;;2.60;;
31126;SDS011;17775;57.948;12.514;2023-07-13T07:50:44;7.88;;;3.50;;
31126;SDS011;17775;57.948;12.514;2023-07-13T07:53:10;12.43;;;4.28;;
31126;SDS011;17775;57.948;12.514;2023-07-13T07:55:37;9.07;;;4.45;;
31126;SDS011;17775;57.948;12.514;2023-07-13T07:58:06;8.88;;;4.82;;
31126;SDS011;17775;57.948;12.514;2023-07-13T08:00:53;7.63;;;3.72;;
31126;SDS011;17775;57.948;12.514;2023-07-13T08:03:25;8.90;;;3.38;;
31126;SDS011;17775;57.948;12.514;2023-07-13T08:05:55;8.25;;;3.67;;
31126;SDS011;17775;57.948;12.514;2023-07-13T08:08:24;13.10;;;3.80;;
31126;SDS011;17775;57.948;12.514;2023-07-13T08:10:51;10.90;;;3.58;;
31126;SDS011;17775;57.948;12.514;2023-07-13T08:13:20;7.22;;;3.72;;
31126;SDS011;17775;57.948;12.514;2023-07-13T08:15:46;10.82;;;3.65;;
31126;SDS011;17775;57.948;12.514;2023-07-13T08:18:13;12.15;;;3.95;;
31126;SDS011;17775;57.948;12.514;2023-07-13T08:20:41;10.10;;;4.63;;
31126;SDS011;17775;57.948;12.514;2023-07-13T08:23:07;7.32;;;4.07;;
31126;SDS011;17775;57.948;12.514;2023-07-13T08:25:35;8.68;;;3.83;;
31126;SDS011;17775;57.948;12.514;2023-07-13T08:28:02;8.43;;;3.38;;
31126;SDS011;17775;57.948;12.514;2023-07-13T08:30:29;8.77;;;3.20;;
31126;SDS011;17775;57.948;12.514;2023-07-13T08:32:55;10.63;;;3.70;;
31126;SDS011;17775;57.948;12.514;2023-07-13T08:35:22;6.78;;;3.03;;
31126;SDS011;17775;57.948;12.514;2023-07-13T08:37:49;9.35;;;3.15;;
31126;SDS011;17775;57.948;12.514;2023-07-13T08:40:15;5.68;;;2.50;;
31126;SDS011;17775;57.948;12.514;2023-07-13T08:42:46;7.38;;;2.05;;
31126;SDS011;17775;57.948;12.514;2023-07-13T08:45:33;6.80;;;2.80;;
31126;SDS011;17775;57.948;12.514;2023-07-13T08:57:39;8.90;;;2.38;;
31126;SDS011;17775;57.948;12.514;2023-07-13T09:00:10;9.35;;;2.45;;
31126;SDS011;17775;57.948;12.514;2023-07-13T09:02:50;5.88;;;2.50;;
31126;SDS011;17775;57.948;12.514;2023-07-13T09:05:30;7.82;;;2.30;;
31126;SDS011;17775;57.948;12.514;2023-07-13T09:10:37;4.97;;;2.58;;
31126;SDS011;17775;57.948;12.514;2023-07-13T09:13:14;7.88;;;2.42;;
31126;SDS011;17775;57.948;12.514;2023-07-13T09:15:43;6.60;;;1.83;;
31126;SDS011;17775;57.948;12.514;2023-07-13T09:18:11;8.77;;;2.28;;
31126;SDS011;17775;57.948;12.514;2023-07-13T09:20:44;6.60;;;2.10;;
31126;SDS011;17775;57.948;12.514;2023-07-13T09:23:14;4.53;;;1.88;;
31126;SDS011;17775;57.948;12.514;2023-07-13T09:25:41;4.78;;;1.83;;
31126;SDS011;17775;57.948;12.514;2023-07-13T09:28:23;5.63;;;1.70;;
31126;SDS011;17775;57.948;12.514;2023-07-13T09:33:20;4.65;;;1.48;;
31126;SDS011;17775;57.948;12.514;2023-07-13T09:35:46;5.30;;;1.50;;
31126;SDS011;17775;57.948;12.514;2023-07-13T09:38:15;3.53;;;1.50;;
31126;SDS011;17775;57.948;12.514;2023-07-13T09:46:27;8.30;;;2.67;;
31126;SDS011;17775;57.948;12.514;2023-07-13T09:48:53;6.22;;;1.60;;
31126;SDS011;17775;57.948;12.514;2023-07-13T09:51:21;4.65;;;1.70;;
31126;SDS011;17775;57.948;12.514;2023-07-13T09:53:48;6.32;;;1.92;;
31126;SDS011;17775;57.948;12.514;2023-07-13T09:56:22;6.60;;;2.33;;
31126;SDS011;17775;57.948;12.514;2023-07-13T09:58:49;5.30;;;1.95;;
31126;SDS011;17775;57.948;12.514;2023-07-13T10:31:52;6.03;;;1.50;;
31126;SDS011;17775;57.948;12.514;2023-07-13T10:41:25;3.50;;;1.15;;
31126;SDS011;17775;57.948;12.514;2023-07-13T11:17:47;3.13;;;1.23;;
31126;SDS011;17775;57.948;12.514;2023-07-13T11:34:00;5.43;;;1.42;;
31126;SDS011;17775;57.948;12.514;2023-07-13T11:36:35;7.85;;;2.08;;
31126;SDS011;17775;57.948;12.514;2023-07-13T11:41:42;3.38;;;1.77;;
31126;SDS011;17775;57.948;12.514;2023-07-13T11:44:14;5.05;;;1.88;;
31126;SDS011;17775;57.948;12.514;2023-07-13T11:46:48;8.60;;;1.67;;
31126;SDS011;17775;57.948;12.514;2023-07-13T11:52:51;6.85;;;2.00;;
31126;SDS011;17775;57.948;12.514;2023-07-13T11:55:20;8.93;;;2.00;;
31126;SDS011;17775;57.948;12.514;2023-07-13T11:57:51;4.90;;;2.13;;
31126;SDS011;17775;57.948;12.514;2023-07-13T12:09:32;3.72;;;1.40;;
31126;SDS011;17775;57.948;12.514;2023-07-13T12:11:59;6.05;;;1.52;;
31126;SDS011;17775;57.948;12.514;2023-07-13T12:20:48;4.82;;;1.10;;
31126;SDS011;17775;57.948;12.514;2023-07-13T12:23:36;6.38;;;1.50;;
31126;SDS011;17775;57.948;12.514;2023-07-13T12:26:03;8.75;;;1.90;;
31126;SDS011;17775;57.948;12.514;2023-07-13T12:28:31;7.05;;;2.03;;
31126;SDS011;17775;57.948;12.514;2023-07-13T12:30:59;5.50;;;1.95;;
31126;SDS011;17775;57.948;12.514;2023-07-13T12:33:28;6.32;;;2.03;;
31126;SDS011;17775;57.948;12.514;2023-07-13T12:35:55;3.55;;;1.92;;
31126;SDS011;17775;57.948;12.514;2023-07-13T12:38:21;8.32;;;2.05;;
31126;SDS011;17775;57.948;12.514;2023-07-13T12:40:51;4.50;;;1.88;;
31126;SDS011;17775;57.948;12.514;2023-07-13T12:43:19;5.63;;;1.77;;
31126;SDS011;17775;57.948;12.514;2023-07-13T12:45:59;6.25;;;1.80;;
31126;SDS011;17775;57.948;12.514;2023-07-13T12:48:26;5.10;;;2.03;;
31126;SDS011;17775;57.948;12.514;2023-07-13T12:51:11;4.18;;;1.75;;
31126;SDS011;17775;57.948;12.514;2023-07-13T12:53:41;5.53;;;2.03;;
31126;SDS011;17775;57.948;12.514;2023-07-13T12:58:39;4.97;;;2.20;;
31126;SDS011;17775;57.948;12.514;2023-07-13T13:01:09;4.28;;;1.80;;
31126;SDS011;17775;57.948;12.514;2023-07-13T13:03:46;6.68;;;2.13;;
31126;SDS011;17775;57.948;12.514;2023-07-13T13:08:48;6.47;;;1.63;;
31126;SDS011;17775;57.948;12.514;2023-07-13T13:13:42;5.53;;;1.77;;
31126;SDS011;17775;57.948;12.514;2023-07-13T13:16:14;6.78;;;1.63;;
31126;SDS011;17775;57.948;12.514;2023-07-13T13:18:42;5.43;;;1.58;;
31126;SDS011;17775;57.948;12.514;2023-07-13T13:21:09;3.20;;;1.60;;
31126;SDS011;17775;57.948;12.514;2023-07-13T13:23:36;5.40;;;1.63;;
31126;SDS011;17775;57.948;12.514;2023-07-13T13:26:02;3.33;;;1.42;;
31126;SDS011;17775;57.948;12.514;2023-07-13T13:28:29;5.03;;;1.40;;
31126;SDS011;17775;57.948;12.514;2023-07-13T13:30:56;2.47;;;1.10;;
31126;SDS011;17775;57.948;12.514;2023-07-13T13:40:35;6.65;;;1.42;;
31126;SDS011;17775;57.948;12.514;2023-07-13T13:43:01;4.30;;;1.48;;
31126;SDS011;17775;57.948;12.514;2023-07-13T13:45:28;6.07;;;1.38;;
31126;SDS011;17775;57.948;12.514;2023-07-13T13:47:58;3.15;;;1.00;;
31126;SDS011;17775;57.948;12.514;2023-07-13T13:50:25;2.55;;;1.08;;
31126;SDS011;17775;57.948;12.514;2023-07-13T13:52:51;4.38;;;1.38;;
31126;SDS011;17775;57.948;12.514;2023-07-13T13:58:14;4.18;;;1.10;;
31126;SDS011;17775;57.948;12.514;2023-07-13T14:00:41;3.95;;;1.20;;
31126;SDS011;17775;57.948;12.514;2023-07-13T14:05:58;4.13;;;1.27;;
31126;SDS011;17775;57.948;12.514;2023-07-13T14:08:25;3.58;;;1.33;;
31126;SDS011;17775;57.948;12.514;2023-07-13T14:10:53;3.80;;;1.30;;
31126;SDS011;17775;57.948;12.514;2023-07-13T14:16:38;3.47;;;1.00;;
31126;SDS011;17775;57.948;12.514;2023-07-13T14:19:04;5.30;;;1.60;;
31126;SDS011;17775;57.948;12.514;2023-07-13T14:21:31;3.75;;;1.35;;
31126;SDS011;17775;57.948;12.514;2023-07-13T14:23:58;2.47;;;0.77;;
31126;SDS011;17775;57.948;12.514;2023-07-13T14:26:27;4.45;;;0.98;;
31126;SDS011;17775;57.948;12.514;2023-07-13T14:28:55;1.25;;;0.73;;
31126;SDS011;17775;57.948;12.514;2023-07-13T14:31:22;3.15;;;1.10;;
31126;SDS011;17775;57.948;12.514;2023-07-13T14:33:54;2.75;;;0.90;;
31126;SDS011;17775;57.948;12.514;2023-07-13T14:36:40;5.57;;;1.10;;
31126;SDS011;17775;57.948;12.514;2023-07-13T14:39:13;3.88;;;1.35;;
31126;SDS011;17775;57.948;12.514;2023-07-13T14:41:40;4.50;;;1.15;;
31126;SDS011;17775;57.948;12.514;2023-07-13T14:44:13;1.75;;;0.90;;
31126;SDS011;17775;57.948;12.514;2023-07-13T14:46:40;4.30;;;1.10;;
31126;SDS011;17775;57.948;12.514;2023-07-13T14:51:54;3.38;;;1.30;;
31126;SDS011;17775;57.948;12.514;2023-07-13T14:54:21;8.02;;;0.80;;
31126;SDS011;17775;57.948;12.514;2023-07-13T14:56:47;3.13;;;0.93;;
31126;SDS011;17775;57.948;12.514;2023-07-13T14:59:14;2.20;;;0.80;;
31126;SDS011;17775;57.948;12.514;2023-07-13T15:01:40;4.30;;;1.10;;
31126;SDS011;17775;57.948;12.514;2023-07-13T15:04:07;2.50;;;1.00;;
31126;SDS011;17775;57.948;12.514;2023-07-13T15:06:53;5.03;;;1.30;;
31126;SDS011;17775;57.948;12.514;2023-07-13T15:09:23;3.00;;;0.90;;
31126;SDS011;17775;57.948;12.514;2023-07-13T15:11:55;1.70;;;0.82;;
31126;SDS011;17775;57.948;12.514;2023-07-13T15:16:51;2.42;;;1.20;;
31126;SDS011;17775;57.948;12.514;2023-07-13T15:19:19;4.03;;;1.40;;
31126;SDS011;17775;57.948;12.514;2023-07-13T15:21:49;3.08;;;1.15;;
31126;SDS011;17775;57.948;12.514;2023-07-13T15:24:16;3.92;;;1.20;;
31126;SDS011;17775;57.948;12.514;2023-07-13T15:53:15;4.28;;;2.28;;
31126;SDS011;17775;57.948;12.514;2023-07-13T15:59:07;7.32;;;1.70;;
31126;SDS011;17775;57.948;12.514;2023-07-13T16:01:35;3.72;;;1.63;;
31126;SDS011;17775;57.948;12.514;2023-07-13T16:04:01;2.20;;;1.38;;
31126;SDS011;17775;57.948;12.514;2023-07-13T16:16:56;5.25;;;1.70;;
31126;SDS011;17775;57.948;12.514;2023-07-13T16:19:23;5.05;;;1.50;;
31126;SDS011;17775;57.948;12.514;2023-07-13T16:22:19;3.97;;;1.52;;
31126;SDS011;17775;57.948;12.514;2023-07-13T16:25:40;4.63;;;1.60;;
31126;SDS011;17775;57.948;12.514;2023-07-13T16:28:08;4.55;;;1.45;;
31126;SDS011;17775;57.948;12.514;2023-07-13T16:30:35;5.15;;;1.90;;
31126;SDS011;17775;57.948;12.514;2023-07-13T16:33:02;5.32;;;1.73;;
31126;SDS011;17775;57.948;12.514;2023-07-13T16:35:33;5.10;;;1.83;;
31126;SDS011;17775;57.948;12.514;2023-07-13T16:38:02;4.10;;;1.63;;
31126;SDS011;17775;57.948;12.514;2023-07-13T16:40:30;5.38;;;1.80;;
31126;SDS011;17775;57.948;12.514;2023-07-13T16:42:57;5.28;;;1.67;;
31126;SDS011;17775;57.948;12.514;2023-07-13T16:52:26;5.43;;;1.77;;
31126;SDS011;17775;57.948;12.514;2023-07-13T16:58:02;6.85;;;1.80;;
31126;SDS011;17775;57.948;12.514;2023-07-13T17:00:30;6.20;;;1.60;;
31126;SDS011;17775;57.948;12.514;2023-07-13T17:03:01;4.63;;;1.48;;
31126;SDS011;17775;57.948;12.514;2023-07-13T17:05:30;5.07;;;1.80;;
31126;SDS011;17775;57.948;12.514;2023-07-13T17:07:58;4.22;;;1.50;;
31126;SDS011;17775;57.948;12.514;2023-07-13T17:10:25;7.38;;;1.63;;
31126;SDS011;17775;57.948;12.514;2023-07-13T17:12:53;4.93;;;1.50;;
31126;SDS011;17775;57.948;12.514;2023-07-13T17:15:23;4.45;;;1.40;;
31126;SDS011;17775;57.948;12.514;2023-07-13T17:17:53;6.72;;;1.73;;
31126;SDS011;17775;57.948;12.514;2023-07-13T17:20:57;8.50;;;1.98;;
31126;SDS011;17775;57.948;12.514;2023-07-13T17:23:25;5.55;;;1.70;;
31126;SDS011;17775;57.948;12.514;2023-07-13T17:25:52;8.63;;;2.50;;
31126;SDS011;17775;57.948;12.514;2023-07-13T17:34:44;8.30;;;2.08;;
31126;SDS011;17775;57.948;12.514;2023-07-13T17:37:14;6.45;;;1.63;;
31126;SDS011;17775;57.948;12.514;2023-07-13T17:39:47;5.72;;;1.50;;
31126;SDS011;17775;57.948;12.514;2023-07-13T17:42:14;7.00;;;1.48;;
31126;SDS011;17775;57.948;12.514;2023-07-13T17:44:40;5.32;;;1.52;;
31126;SDS011;17775;57.948;12.514;2023-07-13T17:47:15;7.93;;;2.10;;
31126;SDS011;17775;57.948;12.514;2023-07-13T17:49:47;4.30;;;1.58;;
31126;SDS011;17775;57.948;12.514;2023-07-13T17:52:14;5.43;;;1.23;;
31126;SDS011;17775;57.948;12.514;2023-07-13T17:54:40;4.20;;;1.35;;
31126;SDS011;17775;57.948;12.514;2023-07-13T17:57:07;6.22;;;1.50;;
31126;SDS011;17775;57.948;12.514;2023-07-13T17:59:33;5.15;;;1.50;;
31126;SDS011;17775;57.948;12.514;2023-07-13T18:01:59;2.85;;;1.38;;
31126;SDS011;17775;57.948;12.514;2023-07-13T18:04:26;6.22;;;2.42;;
31126;SDS011;17775;57.948;12.514;2023-07-13T18:06:54;6.30;;;1.60;;
31126;SDS011;17775;57.948;12.514;2023-07-13T18:09:24;5.32;;;1.40;;
31126;SDS011;17775;57.948;12.514;2023-07-13T18:11:52;7.50;;;1.70;;
31126;SDS011;17775;57.948;12.514;2023-07-13T18:14:19;7.03;;;1.80;;
31126;SDS011;17775;57.948;12.514;2023-07-13T18:16:57;6.85;;;2.35;;
31126;SDS011;17775;57.948;12.514;2023-07-13T18:19:34;8.63;;;2.00;;
31126;SDS011;17775;57.948;12.514;2023-07-13T18:22:02;10.05;;;2.03;;
31126;SDS011;17775;57.948;12.514;2023-07-13T18:24:29;8.25;;;1.90;;
31126;SDS011;17775;57.948;12.514;2023-07-13T18:26:56;10.45;;;2.28;;
31126;SDS011;17775;57.948;12.514;2023-07-13T18:29:23;7.35;;;2.15;;
31126;SDS011;17775;57.948;12.514;2023-07-13T18:31:50;7.78;;;1.88;;
31126;SDS011;17775;57.948;12.514;2023-07-13T18:34:16;6.93;;;2.03;;
31126;SDS011;17775;57.948;12.514;2023-07-13T18:36:43;7.20;;;1.98;;
31126;SDS011;17775;57.948;12.514;2023-07-13T18:39:13;4.07;;;1.80;;
31126;SDS011;17775;57.948;12.514;2023-07-13T18:41:39;5.47;;;2.20;;
31126;SDS011;17775;57.948;12.514;2023-07-13T18:44:09;9.25;;;1.98;;
31126;SDS011;17775;57.948;12.514;2023-07-13T18:46:35;10.20;;;2.72;;
31126;SDS011;17775;57.948;12.514;2023-07-13T18:49:03;7.07;;;1.90;;
31126;SDS011;17775;57.948;12.514;2023-07-13T18:51:30;8.00;;;1.90;;
31126;SDS011;17775;57.948;12.514;2023-07-13T18:53:56;5.35;;;1.73;;
31126;SDS011;17775;57.948;12.514;2023-07-13T18:56:24;14.48;;;2.53;;
31126;SDS011;17775;57.948;12.514;2023-07-13T19:01:57;9.73;;;2.30;;
31126;SDS011;17775;57.948;12.514;2023-07-13T19:04:29;7.68;;;2.20;;
31126;SDS011;17775;57.948;12.514;2023-07-13T19:06:56;4.57;;;2.05;;
31126;SDS011;17775;57.948;12.514;2023-07-13T19:32:09;11.23;;;3.85;;
31126;SDS011;17775;57.948;12.514;2023-07-13T19:40:45;6.60;;;2.40;;
31126;SDS011;17775;57.948;12.514;2023-07-13T19:43:12;10.25;;;1.88;;
31126;SDS011;17775;57.948;12.514;2023-07-13T19:45:39;6.20;;;2.20;;
31126;SDS011;17775;57.948;12.514;2023-07-13T19:48:07;4.95;;;3.03;;
31126;SDS011;17775;57.948;12.514;2023-07-13T19:50:34;8.27;;;2.80;;
31126;SDS011;17775;57.948;12.514;2023-07-13T19:53:02;6.07;;;2.58;;
31126;SDS011;17775;57.948;12.514;2023-07-13T19:55:29;8.02;;;2.88;;
31126;SDS011;17775;57.948;12.514;2023-07-13T19:57:56;8.52;;;2.78;;
31126;SDS011;17775;57.948;12.514;2023-07-13T20:00:24;11.55;;;2.92;;
31126;SDS011;17775;57.948;12.514;2023-07-13T20:02:51;9.70;;;3.70;;
31126;SDS011;17775;57.948;12.514;2023-07-13T20:05:22;9.50;;;2.58;;
31126;SDS011;17775;57.948;12.514;2023-07-13T20:07:51;7.25;;;3.30;;
31126;SDS011;17775;57.948;12.514;2023-07-13T20:10:23;8.73;;;2.40;;
31126;SDS011;17775;57.948;12.514;2023-07-13T20:12:50;5.95;;;2.58;;
31126;SDS011;17775;57.948;12.514;2023-07-13T20:15:21;5.20;;;2.38;;
31126;SDS011;17775;57.948;12.514;2023-07-13T20:17:49;9.02;;;2.78;;
31126;SDS011;17775;57.948;12.514;2023-07-13T20:20:21;11.48;;;3.05;;
31126;SDS011;17775;57.948;12.514;2023-07-13T20:22:50;10.93;;;2.58;;
31126;SDS011;17775;57.948;12.514;2023-07-13T20:25:21;7.25;;;2.58;;
31126;SDS011;17775;57.948;12.514;2023-07-13T20:30:15;8.43;;;3.38;;
31126;SDS011;17775;57.948;12.514;2023-07-13T20:32:42;7.63;;;2.40;;
31126;SDS011;17775;57.948;12.514;2023-07-13T20:35:26;9.45;;;2.80;;
31126;SDS011;17775;57.948;12.514;2023-07-13T20:37:54;6.00;;;2.78;;
31126;SDS011;17775;57.948;12.514;2023-07-13T20:40:21;6.85;;;2.60;;
31126;SDS011;17775;57.948;12.514;2023-07-13T20:42:48;6.70;;;2.97;;
31126;SDS011;17775;57.948;12.514;2023-07-13T20:45:15;11.52;;;3.03;;
31126;SDS011;17775;57.948;12.514;2023-07-13T20:47:47;8.60;;;3.20;;
31126;SDS011;17775;57.948;12.514;2023-07-13T20:50:23;6.30;;;2.75;;
31126;SDS011;17775;57.948;12.514;2023-07-13T20:52:52;10.77;;;2.60;;
31126;SDS011;17775;57.948;12.514;2023-07-13T20:55:20;7.93;;;3.00;;
31126;SDS011;17775;57.948;12.514;2023-07-13T20:57:47;10.60;;;2.95;;
31126;SDS011;17775;57.948;12.514;2023-07-13T21:00:14;6.10;;;2.63;;
31126;SDS011;17775;57.948;12.514;2023-07-13T21:02:42;6.88;;;2.70;;
31126;SDS011;17775;57.948;12.514;2023-07-13T21:05:27;10.45;;;2.70;;
31126;SDS011;17775;57.948;12.514;2023-07-13T21:07:54;15.32;;;3.83;;
31126;SDS011;17775;57.948;12.514;2023-07-13T21:10:22;14.30;;;3.42;;
31126;SDS011;17775;57.948;12.514;2023-07-13T21:12:49;6.10;;;2.53;;
31126;SDS011;17775;57.948;12.514;2023-07-13T21:15:17;10.35;;;2.67;;
31126;SDS011;17775;57.948;12.514;2023-07-13T21:17:45;11.35;;;2.67;;
31126;SDS011;17775;57.948;12.514;2023-07-13T21:20:17;10.73;;;2.88;;
31126;SDS011;17775;57.948;12.514;2023-07-13T21:22:44;10.15;;;3.17;;
31126;SDS011;17775;57.948;12.514;2023-07-13T21:25:12;6.68;;;2.70;;
31126;SDS011;17775;57.948;12.514;2023-07-13T21:27:39;7.18;;;2.70;;
31126;SDS011;17775;57.948;12.514;2023-07-13T21:30:06;10.50;;;3.22;;
31126;SDS011;17775;57.948;12.514;2023-07-13T21:32:32;8.73;;;2.78;;
31126;SDS011;17775;57.948;12.514;2023-07-13T21:34:59;8.45;;;2.80;;
31126;SDS011;17775;57.948;12.514;2023-07-13T21:37:29;12.35;;;3.05;;
31126;SDS011;17775;57.948;12.514;2023-07-13T21:39:56;9.20;;;3.03;;
31126;SDS011;17775;57.948;12.514;2023-07-13T21:42:22;11.02;;;3.60;;
31126;SDS011;17775;57.948;12.514;2023-07-13T21:44:49;16.00;;;3.20;;
31126;SDS011;17775;57.948;12.514;2023-07-13T21:47:15;12.05;;;3.13;;
31126;SDS011;17775;57.948;12.514;2023-07-13T21:49:42;11.70;;;3.30;;
31126;SDS011;17775;57.948;12.514;2023-07-13T21:52:13;12.00;;;3.00;;
31126;SDS011;17775;57.948;12.514;2023-07-13T21:54:41;15.13;;;3.20;;
31126;SDS011;17775;57.948;12.514;2023-07-13T21:57:14;11.45;;;2.83;;
31126;SDS011;17775;57.948;12.514;2023-07-13T21:59:42;10.18;;;2.78;;
31126;SDS011;17775;57.948;12.514;2023-07-13T22:02:11;13.95;;;3.25;;
31126;SDS011;17775;57.948;12.514;2023-07-13T22:04:39;9.40;;;3.47;;
31126;SDS011;17775;57.948;12.514;2023-07-13T22:07:07;10.40;;;2.78;;
31126;SDS011;17775;57.948;12.514;2023-07-13T22:09:35;10.20;;;2.58;;
31126;SDS011;17775;57.948;12.514;2023-07-13T22:12:01;9.93;;;2.75;;
31126;SDS011;17775;57.948;12.514;2023-07-13T22:14:29;11.15;;;2.58;;
31126;SDS011;17775;57.948;12.514;2023-07-13T22:16:55;9.65;;;2.78;;
31126;SDS011;17775;57.948;12.514;2023-07-13T22:19:22;10.88;;;3.15;;
31126;SDS011;17775;57.948;12.514;2023-07-13T22:21:49;8.98;;;2.80;;
31126;SDS011;17775;57.948;12.514;2023-07-13T22:24:17;13.63;;;3.13;;
31126;SDS011;17775;57.948;12.514;2023-07-13T22:29:17;10.20;;;2.35;;
31126;SDS011;17775;57.948;12.514;2023-07-13T22:31:44;6.53;;;2.00;;
31126;SDS011;17775;57.948;12.514;2023-07-13T22:34:18;9.55;;;2.72;;
31126;SDS011;17775;57.948;12.514;2023-07-13T22:36:45;13.63;;;2.70;;
31126;SDS011;17775;57.948;12.514;2023-07-13T22:39:13;8.57;;;2.40;;
31126;SDS011;17775;57.948;12.514;2023-07-13T22:41:41;11.45;;;2.47;;
31126;SDS011;17775;57.948;12.514;2023-07-13T22:44:21;8.63;;;2.58;;
31126;SDS011;17775;57.948;12.514;2023-07-13T22:46:48;6.72;;;2.47;;
31126;SDS011;17775;57.948;12.514;2023-07-13T22:49:21;11.07;;;2.92;;
31126;SDS011;17775;57.948;12.514;2023-07-13T22:51:54;9.63;;;2.55;;
31126;SDS011;17775;57.948;12.514;2023-07-13T22:54:20;11.60;;;2.50;;
31126;SDS011;17775;57.948;12.514;2023-07-13T22:56:48;10.88;;;2.75;;
31126;SDS011;17775;57.948;12.514;2023-07-13T22:59:15;10.48;;;2.47;;
31126;SDS011;17775;57.948;12.514;2023-07-13T23:01:42;7.40;;;2.65;;
31126;SDS011;17775;57.948;12.514;2023-07-13T23:04:16;12.10;;;2.75;;
31126;SDS011;17775;57.948;12.514;2023-07-13T23:06:43;8.48;;;2.90;;
31126;SDS011;17775;57.948;12.514;2023-07-13T23:09:14;11.02;;;3.58;;
31126;SDS011;17775;57.948;12.514;2023-07-13T23:11:42;9.77;;;2.72;;
31126;SDS011;17775;57.948;12.514;2023-07-13T23:14:08;9.40;;;2.40;;
31126;SDS011;17775;57.948;12.514;2023-07-13T23:16:35;10.48;;;3.00;;
31126;SDS011;17775;57.948;12.514;2023-07-13T23:19:01;8.88;;;2.80;;
31126;SDS011;17775;57.948;12.514;2023-07-13T23:21:30;7.20;;;2.80;;
31126;SDS011;17775;57.948;12.514;2023-07-13T23:24:14;9.20;;;2.55;;
31126;SDS011;17775;57.948;12.514;2023-07-13T23:26:41;9.80;;;3.10;;
31126;SDS011;17775;57.948;12.514;2023-07-13T23:29:08;10.55;;;2.90;;
31126;SDS011;17775;57.948;12.514;2023-07-13T23:31:34;16.05;;;3.47;;
31126;SDS011;17775;57.948;12.514;2023-07-13T23:34:09;10.48;;;2.80;;
31126;SDS011;17775;57.948;12.514;2023-07-13T23:36:37;9.07;;;3.08;;
31126;SDS011;17775;57.948;12.514;2023-07-13T23:39:11;11.27;;;3.85;;
31126;SDS011;17775;57.948;12.514;2023-07-13T23:41:38;18.55;;;3.47;;
31126;SDS011;17775;57.948;12.514;2023-07-13T23:44:04;13.60;;;3.47;;
31126;SDS011;17775;57.948;12.514;2023-07-13T23:49:08;14.95;;;3.95;;
31126;SDS011;17775;57.948;12.514;2023-07-13T23:51:35;10.40;;;3.38;;
31126;SDS011;17775;57.948;12.514;2023-07-13T23:54:01;11.07;;;3.17;;
31126;SDS011;17775;57.948;12.514;2023-07-13T23:56:29;11.90;;;4.25;;